Terminal Aerodrome Forecast
Issued by NWS Portland, OR

Home | Current Version | Previous Version | Text Only | Print | Product List | Glossary On
Versions: 1 2 3 4 5 6 7 8 9 10 11 12 13 14 15 16 17 18 19 20 21 22 23 24 25 26 27 28 29 30 31 32 33
000
FTUS46 KPQR 301738
TAFSLE
TAF
KSLE 301738Z 3018/0118 20005KT P6SM VCSH SCT020 BKN035
     FM301900 30006KT P6SM BKN050
     FM010100 32006KT P6SM BKN080
     FM011200 VRB03KT 5SM BR OVC015
     FM011500 VRB02KT 4SM BR OVC004=

USA.gov is the U.S. government's official web portal to all federal, state and local government web resources and services.